createdAt,value
2018-08-07T00:00:26.127Z,23.60
2018-08-07T00:05:23.128Z,23.80
2018-08-07T00:07:53.662Z,23.10
2018-08-07T00:10:23.575Z,23.70
2018-08-07T00:12:52.438Z,23.70
2018-08-07T00:15:23.368Z,23.60
2018-08-07T00:17:52.060Z,23.10
2018-08-07T00:20:20.816Z,23.40
2018-08-07T00:22:49.578Z,22.80
2018-08-07T00:27:46.592Z,23.30
2018-08-07T00:30:16.431Z,23.30
2018-08-07T00:35:18.369Z,23.30
2018-08-07T00:37:47.495Z,23.00
2018-08-07T00:40:17.297Z,23.10
2018-08-07T00:42:47.501Z,23.20
2018-08-07T00:45:20.356Z,22.50
2018-08-07T00:47:49.352Z,23.40
2018-08-07T00:50:19.730Z,22.60
2018-08-07T00:52:49.323Z,22.90
2018-08-07T00:55:19.195Z,23.10
2018-08-07T00:57:48.564Z,23.30
2018-08-07T01:05:15.754Z,22.90
2018-08-07T01:07:44.383Z,22.40
2018-08-07T01:15:15.078Z,23.00
2018-08-07T01:17:44.584Z,22.70
2018-08-07T01:20:18.244Z,23.20
2018-08-07T01:22:48.733Z,23.30
2018-08-07T01:25:26.218Z,22.80
2018-08-07T01:27:56.364Z,22.40
2018-08-07T01:30:28.824Z,22.00
2018-08-07T01:35:34.908Z,22.40
2018-08-07T01:38:06.104Z,22.40
2018-08-07T01:40:40.215Z,22.60
2018-08-07T01:43:12.321Z,21.90
2018-08-07T01:45:44.915Z,22.70
2018-08-07T01:50:49.316Z,22.20
2018-08-07T01:53:18.957Z,22.40
2018-08-07T01:58:19.927Z,22.10
2018-08-07T02:00:50.003Z,22.00
2018-08-07T02:03:29.035Z,22.30
2018-08-07T02:06:04.539Z,22.20
2018-08-07T02:08:37.382Z,21.70
2018-08-07T02:11:07.187Z,22.40
2018-08-07T02:16:10.668Z,22.20
2018-08-07T02:18:40.798Z,21.80
2018-08-07T02:21:14.284Z,22.10
2018-08-07T02:23:45.682Z,22.50
2018-08-07T02:26:17.994Z,22.30
2018-08-07T02:33:53.104Z,21.80
2018-08-07T02:36:25.502Z,22.20
2018-08-07T02:39:01.549Z,22.40
2018-08-07T02:44:05.735Z,22.10
2018-08-07T02:46:36.507Z,21.60
2018-08-07T02:49:10.290Z,22.00
2018-08-07T02:51:41.400Z,22.10
2018-08-07T02:54:11.336Z,22.10
2018-08-07T02:56:41.833Z,21.70
2018-08-07T02:59:12.776Z,22.50
2018-08-07T03:01:46.893Z,21.80
2018-08-07T03:06:53.094Z,22.20
2018-08-07T03:09:25.026Z,21.80
2018-08-07T03:11:55.182Z,21.40
2018-08-07T03:14:25.638Z,21.60
2018-08-07T03:19:28.371Z,22.00
2018-08-07T03:21:59.564Z,21.70
2018-08-07T03:24:31.109Z,21.80
2018-08-07T03:27:02.383Z,22.00
2018-08-07T03:29:35.778Z,21.90
2018-08-07T03:32:10.382Z,21.90
2018-08-07T03:34:43.823Z,21.50
2018-08-07T03:39:44.400Z,21.50
2018-08-07T03:42:14.111Z,21.30
2018-08-07T03:44:49.381Z,21.50
2018-08-07T03:47:19.581Z,21.50
2018-08-07T03:49:49.563Z,21.50
2018-08-07T03:52:20.042Z,21.90
2018-08-07T03:54:50.602Z,21.80
2018-08-07T03:57:19.961Z,21.70
2018-08-07T03:59:50.675Z,21.80
2018-08-07T04:02:24.223Z,21.60
2018-08-07T04:04:55.169Z,21.60
2018-08-07T04:07:26.409Z,21.10
2018-08-07T04:09:57.274Z,21.90
2018-08-07T04:22:14.297Z,21.40
2018-08-07T04:27:16.852Z,20.80
2018-08-07T04:29:48.362Z,20.20
2018-08-07T04:32:19.448Z,20.70
2018-08-07T04:34:56.157Z,21.00
2018-08-07T04:37:28.968Z,20.90
2018-08-07T04:40:03.798Z,20.60
2018-08-07T04:42:36.444Z,21.30
2018-08-07T04:45:14.270Z,21.70
2018-08-07T04:50:34.205Z,21.10
2018-08-07T04:53:05.284Z,20.80
2018-08-07T04:58:07.658Z,21.60
2018-08-07T05:00:37.404Z,21.60
2018-08-07T05:05:37.499Z,21.60
2018-08-07T05:08:11.759Z,21.60
2018-08-07T05:10:42.948Z,21.60
2018-08-07T05:22:57.399Z,22.20
2018-08-07T05:25:29.613Z,21.10
2018-08-07T05:28:07.399Z,21.00
2018-08-07T05:30:39.295Z,21.50
2018-08-07T05:33:10.601Z,21.60
2018-08-07T05:35:41.713Z,22.00
2018-08-07T05:38:11.111Z,22.00
2018-08-07T05:40:45.832Z,22.10
2018-08-07T05:43:14.708Z,22.40
2018-08-07T05:45:50.666Z,22.50
2018-08-07T05:48:20.236Z,22.30
2018-08-07T05:50:53.782Z,22.20
2018-08-07T05:53:22.521Z,22.40
2018-08-07T05:55:53.009Z,22.60
2018-08-07T05:58:25.868Z,23.30
2018-08-07T06:00:57.235Z,22.60
2018-08-07T06:03:28.820Z,22.70
2018-08-07T06:05:59.059Z,23.00
2018-08-07T06:08:27.618Z,22.80
2018-08-07T06:13:26.215Z,23.30
2018-08-07T06:15:56.639Z,22.70
2018-08-07T06:18:27.291Z,23.50
2018-08-07T06:20:57.926Z,23.20
2018-08-07T06:25:59.793Z,23.40
2018-08-07T06:28:30.077Z,22.70
2018-08-07T06:31:00.643Z,22.90
2018-08-07T06:33:32.492Z,23.60
2018-08-07T06:36:02.622Z,23.70
2018-08-07T06:38:33.158Z,23.80
2018-08-07T06:43:33.619Z,24.10
2018-08-07T06:46:03.700Z,23.50
2018-08-07T06:48:34.209Z,24.00
2018-08-07T06:51:06.123Z,24.30
2018-08-07T06:53:38.095Z,24.00
2018-08-07T06:56:10.385Z,23.60
2018-08-07T07:01:12.167Z,24.10
2018-08-07T07:03:43.897Z,24.70
2018-08-07T07:06:16.866Z,24.70
2018-08-07T07:08:54.450Z,24.40
2018-08-07T07:11:27.076Z,24.40
2018-08-07T07:13:58.880Z,24.40
2018-08-07T07:19:01.503Z,25.00
2018-08-07T07:21:34.268Z,25.20
2018-08-07T07:24:06.457Z,25.30
2018-08-07T07:29:06.572Z,25.60
2018-08-07T07:31:35.477Z,25.10
2018-08-07T07:34:06.289Z,25.40
2018-08-07T07:36:41.548Z,25.50
2018-08-07T07:39:15.084Z,26.00
2018-08-07T07:41:45.875Z,25.50
2018-08-07T07:44:17.135Z,26.00
2018-08-07T07:46:46.855Z,26.00
2018-08-07T07:49:17.263Z,26.40
2018-08-07T07:51:48.549Z,26.90
2018-08-07T07:54:17.442Z,26.40
2018-08-07T07:56:48.463Z,27.10
2018-08-07T07:59:18.872Z,26.70
2018-08-07T08:04:23.232Z,27.70
2018-08-07T08:06:52.360Z,29.00
2018-08-07T08:09:24.777Z,29.80
2018-08-07T08:11:54.745Z,31.30
2018-08-07T08:14:29.870Z,33.00
2018-08-07T08:17:00.885Z,34.80
2018-08-07T08:19:30.373Z,35.70
2018-08-07T08:22:00.921Z,36.70
2018-08-07T08:24:31.089Z,37.40
2018-08-07T08:27:02.703Z,37.10
2018-08-07T08:29:32.747Z,37.90
2018-08-07T08:32:04.696Z,37.50
2018-08-07T08:34:35.667Z,38.00
2018-08-07T08:37:04.867Z,38.40
2018-08-07T08:39:33.795Z,38.80
2018-08-07T08:42:05.044Z,38.70
2018-08-07T08:44:38.312Z,38.00
2018-08-07T08:47:09.653Z,38.10
2018-08-07T08:49:41.103Z,38.20
2018-08-07T08:52:13.037Z,38.20
2018-08-07T09:04:31.463Z,38.30
2018-08-07T09:07:01.885Z,38.50
2018-08-07T09:09:38.738Z,38.40
2018-08-07T09:12:09.013Z,37.30
2018-08-07T09:14:39.946Z,36.90
2018-08-07T09:19:39.995Z,37.40
2018-08-07T09:22:10.542Z,38.20
2018-08-07T09:24:41.655Z,38.30
2018-08-07T09:27:16.873Z,38.80
2018-08-07T09:29:48.903Z,38.50
2018-08-07T09:32:20.739Z,37.60
2018-08-07T09:34:53.782Z,37.10
2018-08-07T09:37:24.137Z,37.60
2018-08-07T09:39:55.726Z,37.00
2018-08-07T09:42:27.152Z,37.30
2018-08-07T09:44:57.585Z,37.50
2018-08-07T09:47:28.231Z,38.00
2018-08-07T09:50:02.731Z,37.60
2018-08-07T09:52:33.589Z,38.20
2018-08-07T10:00:27.729Z,36.50
2018-08-07T10:02:59.876Z,36.70
2018-08-07T10:05:31.880Z,36.70
2018-08-07T10:08:02.589Z,36.40
2018-08-07T10:10:33.940Z,36.30
2018-08-07T10:13:10.688Z,36.80
2018-08-07T10:15:41.838Z,36.50
2018-08-07T10:20:45.526Z,35.90
2018-08-07T10:23:17.399Z,36.40
2018-08-07T10:25:47.480Z,36.40
2018-08-07T10:28:18.964Z,36.10
2018-08-07T10:30:47.973Z,36.10
2018-08-07T10:33:20.157Z,36.50
2018-08-07T10:35:50.222Z,36.40
2018-08-07T10:38:21.617Z,36.60
2018-08-07T10:40:55.989Z,36.50
2018-08-07T10:43:32.743Z,36.40
2018-08-07T10:51:00.585Z,36.20
2018-08-07T10:53:30.994Z,36.10
2018-08-07T11:08:59.618Z,35.80
2018-08-07T11:11:28.398Z,35.70
2018-08-07T11:13:57.189Z,35.70
2018-08-07T11:16:26.188Z,35.80
2018-08-07T11:21:24.047Z,36.40
2018-08-07T11:23:52.614Z,36.60
2018-08-07T11:28:49.882Z,36.30
2018-08-07T11:31:19.286Z,36.40
2018-08-07T11:33:48.380Z,36.80
2018-08-07T11:36:17.140Z,37.30
2018-08-07T11:38:46.037Z,37.80
2018-08-07T11:41:14.631Z,37.20
2018-08-07T11:43:43.934Z,37.40
2018-08-07T11:46:13.405Z,37.50
2018-08-07T11:48:42.114Z,37.10
2018-08-07T11:51:10.823Z,37.10
2018-08-07T11:53:39.235Z,37.10
2018-08-07T11:56:09.463Z,37.80
2018-08-07T11:58:37.777Z,37.60
2018-08-07T12:01:06.539Z,37.30
2018-08-07T12:03:37.101Z,37.40
2018-08-07T12:06:06.477Z,37.50
2018-08-07T12:08:35.140Z,37.70
2018-08-07T12:11:03.824Z,37.30
2018-08-07T12:13:35.104Z,37.30
2018-08-07T12:16:05.284Z,37.50
2018-08-07T12:18:34.208Z,38.00
2018-08-07T12:23:32.191Z,37.40
2018-08-07T12:26:01.553Z,37.50
2018-08-07T12:28:31.560Z,37.90
2018-08-07T12:31:01.072Z,37.70
2018-08-07T12:33:30.488Z,37.80
2018-08-07T12:36:00.893Z,37.60
2018-08-07T12:40:58.246Z,37.60
2018-08-07T12:43:26.811Z,38.10
2018-08-07T12:45:55.561Z,38.10
2018-08-07T12:48:24.724Z,38.40
2018-08-07T12:50:53.344Z,37.80
2018-08-07T12:55:50.147Z,38.00
2018-08-07T12:58:19.347Z,38.40
2018-08-07T13:00:48.545Z,37.80
2018-08-07T13:03:18.195Z,37.80
2018-08-07T13:08:17.478Z,37.80
2018-08-07T13:10:46.092Z,38.20
2018-08-07T13:13:15.344Z,38.40
2018-08-07T13:18:13.447Z,37.90
2018-08-07T13:20:42.288Z,38.40
2018-08-07T13:23:13.976Z,38.10
2018-08-07T13:25:42.474Z,37.90
2018-08-07T13:28:12.948Z,38.10
2018-08-07T13:30:41.544Z,38.30
2018-08-07T13:33:10.162Z,38.80
2018-08-07T13:35:38.949Z,38.60
2018-08-07T13:38:07.737Z,39.20
2018-08-07T13:40:36.642Z,38.80
2018-08-07T13:43:05.554Z,39.20
2018-08-07T13:48:03.412Z,39.30
2018-08-07T13:50:33.028Z,39.70
2018-08-07T13:53:02.621Z,39.70
2018-08-07T13:55:31.334Z,39.40
2018-08-07T13:58:00.468Z,39.50
2018-08-07T14:00:29.375Z,39.30
2018-08-07T14:02:58.369Z,39.60
2018-08-07T14:05:27.883Z,38.80
2018-08-07T14:07:59.147Z,38.90
2018-08-07T14:10:29.420Z,39.30
2018-08-07T14:12:59.389Z,39.80
2018-08-07T14:15:29.102Z,39.80
2018-08-07T14:17:57.813Z,40.30
2018-08-07T14:21:08.335Z,40.10
2018-08-07T14:23:36.813Z,40.40
2018-08-07T14:26:05.746Z,40.10
2018-08-07T14:28:34.140Z,39.50
2018-08-07T14:31:03.674Z,39.90
2018-08-07T14:33:32.232Z,39.50
2018-08-07T14:36:00.854Z,39.30
2018-08-07T14:38:29.619Z,39.30
2018-08-07T14:40:58.547Z,39.40
2018-08-07T14:43:27.272Z,39.30
2018-08-07T14:45:56.079Z,39.30
2018-08-07T14:48:24.960Z,39.70
2018-08-07T14:50:53.527Z,39.80
2018-08-07T14:53:25.702Z,39.30
2018-08-07T14:55:54.007Z,38.80
2018-08-07T14:58:22.666Z,38.80
2018-08-07T15:00:51.271Z,38.60
2018-08-07T15:03:19.996Z,38.60
2018-08-07T15:05:48.640Z,38.80
2018-08-07T15:08:18.089Z,38.70
2018-08-07T15:10:48.618Z,38.90
2018-08-07T15:13:17.680Z,39.00
2018-08-07T15:15:47.104Z,39.60
2018-08-07T15:18:17.420Z,38.70
2018-08-07T15:20:46.462Z,38.60
2018-08-07T15:23:14.811Z,38.70
2018-08-07T15:25:43.095Z,39.00
2018-08-07T15:28:13.194Z,38.50
2018-08-07T15:30:41.774Z,38.50
2018-08-07T15:33:10.969Z,39.00
2018-08-07T15:35:42.023Z,38.70
2018-08-07T15:38:10.772Z,38.40
2018-08-07T15:40:40.979Z,38.00
2018-08-07T15:43:11.300Z,38.20
2018-08-07T15:45:40.115Z,37.60
2018-08-07T15:48:10.600Z,37.80
2018-08-07T15:50:39.474Z,37.80
2018-08-07T15:53:08.825Z,37.60
2018-08-07T15:55:37.666Z,37.40
2018-08-07T15:58:08.106Z,37.50
2018-08-07T16:00:36.709Z,37.40
2018-08-07T16:03:05.745Z,37.30
2018-08-07T16:05:35.027Z,37.50
2018-08-07T16:08:03.575Z,37.20
2018-08-07T16:10:32.147Z,37.00
2018-08-07T16:13:01.049Z,37.60
2018-08-07T16:15:29.728Z,38.00
2018-08-07T16:17:58.337Z,37.10
2018-08-07T16:20:26.953Z,37.70
2018-08-07T16:22:55.242Z,37.40
2018-08-07T16:25:23.837Z,37.10
2018-08-07T16:27:52.416Z,37.20
2018-08-07T16:30:25.017Z,37.80
2018-08-07T16:32:53.581Z,38.20
2018-08-07T16:35:22.264Z,38.50
2018-08-07T16:37:50.788Z,38.20
2018-08-07T16:40:26.942Z,38.50
2018-08-07T16:42:55.981Z,39.00
2018-08-07T16:45:26.149Z,38.70
2018-08-07T16:47:55.101Z,38.50
2018-08-07T16:50:26.909Z,38.40
2018-08-07T16:52:58.056Z,38.80
2018-08-07T16:55:29.741Z,38.90
2018-08-07T16:58:00.286Z,38.50
2018-08-07T17:00:29.120Z,38.80
2018-08-07T17:02:59.055Z,38.30
2018-08-07T17:05:29.933Z,38.30
2018-08-07T17:07:58.769Z,38.50
2018-08-07T17:10:28.135Z,38.40
2018-08-07T17:12:56.893Z,38.70
2018-08-07T17:15:25.592Z,38.30
2018-08-07T17:17:55.086Z,38.20
2018-08-07T17:20:24.812Z,38.10
2018-08-07T17:22:54.285Z,37.90
2018-08-07T17:25:24.109Z,38.00
2018-08-07T17:27:53.873Z,38.00
2018-08-07T17:30:25.847Z,37.60
2018-08-07T17:32:55.574Z,37.60
2018-08-07T17:35:25.438Z,37.90
2018-08-07T17:37:56.747Z,37.30
2018-08-07T17:40:27.106Z,37.80
2018-08-07T17:45:30.544Z,37.50
2018-08-07T17:47:59.215Z,37.00
2018-08-07T17:50:29.201Z,36.70
2018-08-07T17:52:59.614Z,36.50
2018-08-07T17:55:29.463Z,37.00
2018-08-07T17:58:00.321Z,36.40
2018-08-07T18:00:28.977Z,36.80
2018-08-07T18:02:58.705Z,36.30
2018-08-07T18:05:27.294Z,36.20
2018-08-07T18:07:57.819Z,36.30
2018-08-07T18:10:26.537Z,36.00
2018-08-07T18:12:55.376Z,35.90
2018-08-07T18:15:24.787Z,36.20
2018-08-07T18:17:53.748Z,35.70
2018-08-07T18:20:23.758Z,35.50
2018-08-07T18:22:55.800Z,35.80
2018-08-07T18:25:26.360Z,35.50
2018-08-07T18:27:56.391Z,35.30
2018-08-07T18:30:26.358Z,35.60
2018-08-07T18:32:55.518Z,35.50
2018-08-07T18:35:25.940Z,35.20
2018-08-07T18:37:54.729Z,34.90
2018-08-07T18:40:27.538Z,35.20
2018-08-07T18:42:57.391Z,34.70
2018-08-07T18:48:01.689Z,34.10
2018-08-07T18:50:30.718Z,34.00
2018-08-07T18:53:00.515Z,33.50
2018-08-07T18:55:29.429Z,33.80
2018-08-07T18:57:57.998Z,33.10
2018-08-07T19:00:28.076Z,33.20
2018-08-07T19:02:57.092Z,32.90
2018-08-07T19:05:28.072Z,32.80
2018-08-07T19:07:57.056Z,32.90
2018-08-07T19:10:26.239Z,32.60
2018-08-07T19:12:56.209Z,32.50
2018-08-07T19:15:25.237Z,32.10
2018-08-07T19:17:54.376Z,32.20
2018-08-07T19:20:24.225Z,31.80
2018-08-07T19:22:54.879Z,31.80
2018-08-07T19:25:24.794Z,31.60
2018-08-07T19:27:54.434Z,31.50
2018-08-07T19:30:25.899Z,31.80
2018-08-07T19:32:58.227Z,31.20
2018-08-07T19:35:27.903Z,31.60
2018-08-07T19:37:58.243Z,31.20
2018-08-07T19:40:27.861Z,30.90
2018-08-07T19:42:56.467Z,31.10
2018-08-07T19:45:25.041Z,30.60
2018-08-07T19:47:54.009Z,31.10
2018-08-07T19:50:23.374Z,31.00
2018-08-07T19:52:59.242Z,30.70
2018-08-07T19:55:28.428Z,30.60
2018-08-07T19:57:57.693Z,30.50
2018-08-07T20:00:27.684Z,30.40
2018-08-07T20:02:58.003Z,30.50
2018-08-07T20:05:27.900Z,30.60
2018-08-07T20:07:58.661Z,30.70
2018-08-07T20:10:28.936Z,30.60
2018-08-07T20:12:57.692Z,30.80
2018-08-07T20:15:28.716Z,30.00
2018-08-07T20:17:58.359Z,30.70
2018-08-07T20:20:27.382Z,30.40
2018-08-07T20:22:56.535Z,29.80
2018-08-07T20:25:26.034Z,30.40
2018-08-07T20:27:54.787Z,29.80
2018-08-07T20:30:25.345Z,29.70
2018-08-07T20:32:56.445Z,29.70
2018-08-07T20:35:25.706Z,30.00
2018-08-07T20:37:55.691Z,29.60
2018-08-07T20:40:25.852Z,29.40
2018-08-07T20:42:58.401Z,29.60
2018-08-07T20:45:28.476Z,29.90
2018-08-07T20:47:58.279Z,29.90
2018-08-07T20:50:28.815Z,29.50
2018-08-07T20:52:57.853Z,30.00
2018-08-07T20:55:31.515Z,30.20
2018-08-07T20:58:00.783Z,29.50
2018-08-07T21:00:30.065Z,30.10
2018-08-07T21:02:58.509Z,29.70
2018-08-07T21:05:26.999Z,30.20
2018-08-07T21:07:55.968Z,29.70
2018-08-07T21:10:27.780Z,30.00
2018-08-07T21:12:57.416Z,29.60
2018-08-07T21:15:26.262Z,29.40
2018-08-07T21:17:55.152Z,29.40
2018-08-07T21:20:24.449Z,29.40
2018-08-07T21:22:53.303Z,29.20
2018-08-07T21:25:23.463Z,29.20
2018-08-07T21:27:54.027Z,28.80
2018-08-07T21:30:24.441Z,28.90
2018-08-07T21:32:53.797Z,28.90
2018-08-07T21:35:29.505Z,29.00
2018-08-07T21:37:58.297Z,28.30
2018-08-07T21:40:27.623Z,28.90
2018-08-07T21:42:57.044Z,29.10
2018-08-07T21:45:26.276Z,28.90
2018-08-07T21:47:54.914Z,28.90
2018-08-07T21:50:25.584Z,29.20
2018-08-07T21:52:54.873Z,28.60
2018-08-07T21:55:23.865Z,29.00
2018-08-07T21:57:52.785Z,28.60
2018-08-07T22:00:50.417Z,29.10
2018-08-07T22:03:19.323Z,29.00
2018-08-07T22:05:49.359Z,28.20
2018-08-07T22:08:17.752Z,28.40
2018-08-07T22:10:46.470Z,29.20
2018-08-07T22:13:15.842Z,28.80
2018-08-07T22:15:45.312Z,28.50
2018-08-07T22:18:15.320Z,28.20
2018-08-07T22:20:44.608Z,28.00
2018-08-07T22:23:12.896Z,28.40
2018-08-07T22:25:41.361Z,28.70
2018-08-07T22:28:10.791Z,28.60
2018-08-07T22:30:39.862Z,28.40
2018-08-07T22:33:08.765Z,28.30
2018-08-07T22:35:38.279Z,28.30
2018-08-07T22:38:07.558Z,27.80
2018-08-07T22:40:38.019Z,27.40
2018-08-07T22:43:07.474Z,27.00
2018-08-07T22:45:36.181Z,26.70
2018-08-07T22:48:08.051Z,26.80
2018-08-07T22:50:36.974Z,26.40
2018-08-07T22:53:05.558Z,25.70
2018-08-07T22:55:34.394Z,26.60
2018-08-07T22:58:03.003Z,25.90
2018-08-07T23:00:31.716Z,25.50
2018-08-07T23:03:01.460Z,24.80
2018-08-07T23:05:31.420Z,24.20
2018-08-07T23:08:00.101Z,23.50
2018-08-07T23:10:29.230Z,23.10
2018-08-07T23:12:57.604Z,23.20
2018-08-07T23:15:26.402Z,23.00
2018-08-07T23:17:55.619Z,23.00
2018-08-07T23:20:26.878Z,23.00
2018-08-07T23:22:57.318Z,22.80
2018-08-07T23:25:25.948Z,23.00
2018-08-07T23:27:55.221Z,22.20
2018-08-07T23:30:24.024Z,22.30
2018-08-07T23:32:52.668Z,22.20
2018-08-07T23:35:22.232Z,21.80
2018-08-07T23:37:51.931Z,22.60
2018-08-07T23:40:20.326Z,22.20
2018-08-07T23:42:48.821Z,21.70
2018-08-07T23:45:17.443Z,22.10
2018-08-07T23:47:46.763Z,22.30
2018-08-07T23:50:15.593Z,21.80
2018-08-07T23:52:45.123Z,21.80
2018-08-07T23:55:14.906Z,22.20
2018-08-07T23:57:45.408Z,22.50
